Time;durP1;ratioP1;P1;durP2;ratioP2;P2;SDS_P1;SDS_P2;PMS_P1;PMS_P2;Temp;Humidity;BMP_temperature;BMP_pressure;BME280_temperature;BME280_humidity;BME280_pressure;Samples;Min_cycle;Max_cycle;Signal;HPM_P1;HPM_P2
2023/04/05 00:01:25;;;;;;;3.30;3.00;;;2.10;70.20;;;;;;5092994;28;20216;-82
2023/04/05 00:03:57;;;;;;;3.47;3.13;;;2.20;70.10;;;;;;5092581;28;20646;-81
2023/04/05 00:06:28;;;;;;;3.90;3.50;;;2.30;69.90;;;;;;5092401;28;20238;-81
2023/04/05 00:08:58;;;;;;;3.77;3.23;;;2.30;70.00;;;;;;5093133;28;20154;-81
2023/04/05 00:11:28;;;;;;;3.60;3.27;;;2.30;70.20;;;;;;5093882;28;20177;-80
2023/04/05 00:13:55;;;;;;;3.67;3.37;;;2.10;70.00;;;;;;5098956;28;20311;-79
2023/04/05 00:16:21;;;;;;;5.97;2.90;;;2.00;70.70;;;;;;5112784;28;20205;-79
2023/04/05 00:18:50;;;;;;;3.30;3.10;;;1.90;71.10;;;;;;5112189;28;20178;-79
2023/04/05 00:21:21;;;;;;;3.60;3.30;;;2.10;71.20;;;;;;5093881;28;20241;-81
2023/04/05 00:23:50;;;;;;;4.17;3.43;;;2.00;70.90;;;;;;5112719;28;20169;-80
2023/04/05 00:26:16;;;;;;;4.40;2.90;;;2.00;71.00;;;;;;5112465;28;20650;-79
2023/04/05 00:28:42;;;;;;;3.80;3.50;;;2.00;70.80;;;;;;5093166;28;20206;-79
2023/04/05 00:31:08;;;;;;;4.97;3.20;;;1.90;71.50;;;;;;5111675;28;20223;-81
2023/04/05 00:33:34;;;;;;;3.33;3.03;;;1.90;71.50;;;;;;5112517;28;20637;-80
2023/04/05 00:36:11;;;;;;;3.90;3.17;;;1.80;71.60;;;;;;5112343;28;20216;-80
2023/04/05 00:38:37;;;;;;;4.07;3.40;;;1.80;71.70;;;;;;5112268;28;20175;-79
2023/04/05 00:41:03;;;;;;;3.00;2.80;;;1.80;71.50;;;;;;5094395;28;20177;-80
2023/04/05 00:43:29;;;;;;;3.53;3.20;;;1.80;72.00;;;;;;5112489;28;20166;-80
2023/04/05 00:45:55;;;;;;;4.63;3.33;;;1.80;72.10;;;;;;5112105;28;20198;-79
2023/04/05 00:48:22;;;;;;;3.40;3.10;;;1.80;72.50;;;;;;5112183;28;20818;-80
2023/04/05 00:50:49;;;;;;;3.27;2.97;;;1.70;72.50;;;;;;5112209;28;20506;-80
2023/04/05 00:53:18;;;;;;;3.47;3.17;;;1.70;72.40;;;;;;5112440;28;20184;-82
2023/04/05 00:55:49;;;;;;;4.30;3.20;;;1.50;72.50;;;;;;5112104;28;20264;-82
2023/04/05 00:58:18;;;;;;;4.27;3.30;;;1.60;73.30;;;;;;5094148;28;20208;-82
2023/04/05 01:01:30;;;;;;;4.40;3.80;;;1.50;73.50;;;;;;5112034;28;20654;-80
2023/04/05 01:04:02;;;;;;;3.60;3.30;;;1.50;73.40;;;;;;5108340;28;20200;-81
2023/04/05 01:06:56;;;;;;;4.40;3.87;;;1.60;73.40;;;;;;5112103;28;20178;-79
2023/04/05 01:09:32;;;;;;;4.77;3.90;;;1.60;73.20;;;;;;5112180;28;20170;-80
2023/04/05 01:12:02;;;;;;;2.93;2.73;;;1.50;73.20;;;;;;5112129;28;20164;-80
2023/04/05 01:14:27;;;;;;;3.47;3.13;;;1.50;73.10;;;;;;5112032;28;20226;-80
2023/04/05 01:16:57;;;;;;;4.67;3.50;;;1.50;73.10;;;;;;5111980;28;20214;-80
2023/04/05 01:19:28;;;;;;;3.83;3.40;;;1.60;73.10;;;;;;5093519;28;20648;-80
2023/04/05 01:22:12;;;;;;;3.30;3.00;;;1.60;73.00;;;;;;5093794;28;20181;-80
2023/04/05 01:24:56;;;;;;;4.67;3.23;;;1.60;72.80;;;;;;5112082;28;20165;-79
2023/04/05 01:27:51;;;;;;;3.20;3.00;;;1.50;73.30;;;;;;5111866;28;20517;-79
2023/04/05 01:30:31;;;;;;;4.13;3.47;;;1.40;74.00;;;;;;5072620;28;20649;-80
2023/04/05 01:33:10;;;;;;;4.90;3.20;;;1.40;74.20;;;;;;5115841;28;20165;-80
2023/04/05 01:36:15;;;;;;;3.30;3.10;;;1.30;74.20;;;;;;5115695;28;20651;-80
2023/04/05 01:38:45;;;;;;;5.07;4.00;;;1.30;74.10;;;;;;5032835;28;20545;-80
2023/04/05 01:41:10;;;;;;;3.73;3.40;;;1.30;74.00;;;;;;5016244;28;20188;-78
2023/04/05 01:43:36;;;;;;;4.17;3.77;;;1.20;74.30;;;;;;5032931;28;20512;-80
2023/04/05 01:46:02;;;;;;;5.07;3.60;;;1.20;75.00;;;;;;5016021;28;20180;-82
2023/04/05 01:48:28;;;;;;;3.60;3.30;;;1.20;74.60;;;;;;5032783;28;20192;-80
2023/04/05 01:50:53;;;;;;;4.20;3.80;;;1.20;75.00;;;;;;5032755;28;20686;-83
2023/04/05 01:53:19;;;;;;;4.40;3.40;;;1.20;75.20;;;;;;5032813;28;20177;-82
2023/04/05 01:55:45;;;;;;;3.47;3.27;;;1.10;75.10;;;;;;5015827;28;20216;-82
2023/04/05 01:58:10;;;;;;;5.47;3.83;;;1.20;75.20;;;;;;5034057;28;20234;-80
2023/04/05 02:00:37;;;;;;;4.73;3.70;;;1.10;75.30;;;;;;5033409;28;20644;-82
2023/04/05 02:03:02;;;;;;;4.60;3.73;;;1.10;75.40;;;;;;5033360;28;20246;-80
2023/04/05 02:05:28;;;;;;;4.47;3.67;;;1.00;76.00;;;;;;5016165;28;20632;-80
2023/04/05 02:07:54;;;;;;;3.83;3.53;;;1.00;76.10;;;;;;5032457;28;20191;-81
2023/04/05 02:10:21;;;;;;;5.37;3.90;;;1.00;76.10;;;;;;5032556;28;20180;-80
2023/04/05 02:12:47;;;;;;;3.40;3.10;;;1.10;76.00;;;;;;5015757;28;20606;-79
2023/04/05 02:15:13;;;;;;;6.50;3.70;;;1.00;76.10;;;;;;5111010;28;20270;-79
2023/04/05 02:17:39;;;;;;;4.77;4.10;;;1.00;76.10;;;;;;5096437;28;20189;-81
2023/04/05 02:20:07;;;;;;;5.83;3.80;;;1.00;76.30;;;;;;5096564;28;20181;-79
2023/04/05 02:22:32;;;;;;;5.57;4.10;;;1.00;76.20;;;;;;5114952;28;20249;-80
2023/04/05 02:24:58;;;;;;;3.80;3.40;;;1.00;76.20;;;;;;5114857;28;20688;-80
2023/04/05 02:27:24;;;;;;;4.23;3.83;;;1.00;76.50;;;;;;5096159;28;20216;-79
2023/04/05 02:29:51;;;;;;;4.47;4.03;;;1.00;76.70;;;;;;5114815;28;20200;-79
2023/04/05 02:32:17;;;;;;;4.50;3.63;;;0.90;76.70;;;;;;5114649;28;20501;-80
2023/04/05 02:34:43;;;;;;;5.80;4.30;;;0.90;76.50;;;;;;5114668;28;20165;-79
2023/04/05 02:37:09;;;;;;;6.33;3.67;;;0.90;76.50;;;;;;5114721;28;20207;-80
2023/04/05 02:39:34;;;;;;;4.23;3.70;;;0.90;76.60;;;;;;5114779;28;20176;-79
2023/04/05 02:42:00;;;;;;;3.63;3.33;;;0.80;77.00;;;;;;5113942;28;20256;-82
2023/04/05 02:44:26;;;;;;;4.13;3.73;;;0.80;77.30;;;;;;5114561;28;20656;-80
2023/04/05 02:46:51;;;;;;;5.37;4.30;;;0.70;77.40;;;;;;5096478;28;20217;-81
2023/04/05 02:49:17;;;;;;;4.63;3.90;;;0.80;77.60;;;;;;5115072;28;20529;-80
2023/04/05 02:51:43;;;;;;;4.07;3.73;;;0.70;77.40;;;;;;5095823;28;20323;-80
2023/04/05 02:54:08;;;;;;;4.47;4.03;;;0.80;77.60;;;;;;5114235;28;20180;-80
2023/04/05 02:56:34;;;;;;;4.53;4.13;;;0.80;77.60;;;;;;5114096;28;20705;-81
2023/04/05 02:59:00;;;;;;;4.60;3.87;;;0.80;77.80;;;;;;5114463;28;20179;-81
2023/04/05 03:01:26;;;;;;;5.93;4.07;;;0.80;77.80;;;;;;5095789;28;20318;-79
2023/04/05 03:03:52;;;;;;;3.87;3.50;;;0.70;78.00;;;;;;5114490;28;20168;-80
2023/04/05 03:06:19;;;;;;;4.53;4.13;;;0.70;78.00;;;;;;5096147;28;20190;-81
2023/04/05 03:08:47;;;;;;;4.67;3.93;;;0.60;78.30;;;;;;5095607;28;20181;-80
2023/04/05 03:11:14;;;;;;;6.00;4.23;;;0.60;78.20;;;;;;5113715;28;20169;-80
2023/04/05 03:13:40;;;;;;;4.67;4.00;;;0.60;78.40;;;;;;5113658;28;20238;-79
2023/04/05 03:16:06;;;;;;;6.53;3.70;;;0.60;78.40;;;;;;5113649;28;20239;-81
2023/04/05 03:18:32;;;;;;;4.13;3.73;;;0.60;78.60;;;;;;5114388;28;20177;-81
2023/04/05 03:20:58;;;;;;;4.10;3.63;;;0.60;78.50;;;;;;5113910;28;20170;-81
2023/04/05 03:23:28;;;;;;;4.70;3.93;;;0.60;78.40;;;;;;5113355;28;20166;-79
2023/04/05 03:26:01;;;;;;;6.33;4.20;;;0.60;78.60;;;;;;5113826;28;20255;-79
2023/04/05 03:28:28;;;;;;;6.47;4.50;;;0.60;78.20;;;;;;5113573;28;20154;-80
2023/04/05 03:30:54;;;;;;;4.20;3.63;;;0.60;78.50;;;;;;5113457;28;20171;-79
2023/04/05 03:33:20;;;;;;;4.83;4.20;;;0.60;78.80;;;;;;5113295;28;20222;-81
2023/04/05 03:35:47;;;;;;;6.80;4.17;;;0.60;78.70;;;;;;5113138;28;20992;-80
2023/04/05 03:38:13;;;;;;;5.00;4.23;;;0.60;78.50;;;;;;5095321;28;20538;-80
2023/04/05 03:40:39;;;;;;;5.30;4.53;;;0.50;78.70;;;;;;5113402;28;20180;-80
2023/04/05 03:43:04;;;;;;;4.50;4.10;;;0.60;78.60;;;;;;5113329;28;20217;-79
2023/04/05 03:45:30;;;;;;;7.33;4.77;;;0.60;78.70;;;;;;5113385;28;20203;-81
2023/04/05 03:47:57;;;;;;;7.30;4.60;;;0.60;78.90;;;;;;5113455;28;20176;-82
2023/04/05 03:50:25;;;;;;;5.53;3.97;;;0.50;78.80;;;;;;5113546;28;20210;-80
2023/04/05 03:52:51;;;;;;;5.33;4.00;;;0.40;78.90;;;;;;5112570;28;20172;-79
2023/04/05 03:55:17;;;;;;;6.53;4.40;;;0.40;79.00;;;;;;5113151;28;20203;-82
2023/04/05 03:57:43;;;;;;;4.40;4.00;;;0.40;79.40;;;;;;5113092;28;20206;-81
2023/04/05 04:00:16;;;;;;;8.03;4.10;;;0.40;79.70;;;;;;5113038;28;20523;-82
2023/04/05 04:02:47;;;;;;;4.53;4.13;;;0.40;79.30;;;;;;5112821;28;20273;-79
2023/04/05 04:05:14;;;;;;;4.77;4.30;;;0.40;79.20;;;;;;5113112;28;20234;-80
2023/04/05 04:07:41;;;;;;;5.53;3.90;;;0.40;79.20;;;;;;5094419;28;20176;-82
2023/04/05 04:10:09;;;;;;;4.63;3.73;;;0.40;79.00;;;;;;5094654;28;20514;-81
2023/04/05 04:12:35;;;;;;;4.53;4.03;;;0.50;79.10;;;;;;5094375;28;20528;-81
2023/04/05 04:15:01;;;;;;;5.93;4.33;;;0.50;79.00;;;;;;5112680;28;20316;-80
2023/04/05 04:17:30;;;;;;;4.97;3.67;;;0.50;78.80;;;;;;5112702;28;20179;-78
2023/04/05 04:19:56;;;;;;;4.43;4.03;;;0.50;78.80;;;;;;5112779;28;20170;-82
2023/04/05 04:22:25;;;;;;;5.77;4.63;;;0.50;79.20;;;;;;5112628;28;20176;-79
2023/04/05 04:24:54;;;;;;;6.47;5.00;;;0.50;79.10;;;;;;5112882;28;20164;-80
2023/04/05 04:27:20;;;;;;;7.17;4.73;;;0.40;79.10;;;;;;5112697;28;20185;-81
2023/04/05 04:29:46;;;;;;;7.00;4.67;;;0.50;79.30;;;;;;5112708;28;20252;-81
2023/04/05 04:32:14;;;;;;;4.57;4.10;;;0.40;79.40;;;;;;5112725;28;20168;-81
2023/04/05 04:34:45;;;;;;;6.90;4.13;;;0.50;79.60;;;;;;5112519;28;20667;-81
2023/04/05 04:37:16;;;;;;;5.20;4.70;;;0.50;79.70;;;;;;5112891;28;20539;-80
2023/04/05 04:39:46;;;;;;;7.60;4.80;;;0.40;79.50;;;;;;5112824;28;20501;-82
2023/04/05 04:42:12;;;;;;;9.33;4.83;;;0.40;79.60;;;;;;5112609;28;20172;-80
2023/04/05 04:44:38;;;;;;;6.40;4.63;;;0.40;79.70;;;;;;5112557;28;20231;-81
2023/04/05 04:47:11;;;;;;;5.43;4.90;;;0.40;79.50;;;;;;5112285;28;20178;-78
2023/04/05 04:49:39;;;;;;;6.37;4.77;;;0.40;79.40;;;;;;5112404;28;20220;-81
2023/04/05 04:52:05;;;;;;;6.13;5.07;;;0.40;79.60;;;;;;5112537;28;20643;-81
2023/04/05 04:54:32;;;;;;;4.83;4.43;;;0.40;79.80;;;;;;5112211;28;20172;-81
2023/04/05 04:57:00;;;;;;;5.20;4.70;;;0.30;79.80;;;;;;5094248;28;20204;-82
2023/04/05 04:59:27;;;;;;;4.63;4.23;;;0.30;79.90;;;;;;5112574;28;20210;-81
2023/04/05 05:01:52;;;;;;;7.20;5.00;;;0.30;79.90;;;;;;5094161;28;20262;-81
2023/04/05 05:04:18;;;;;;;5.43;4.90;;;0.20;79.80;;;;;;5113458;28;20253;-79
2023/04/05 05:06:44;;;;;;;7.37;4.93;;;0.30;79.90;;;;;;5116111;28;20183;-82
2023/04/05 05:09:09;;;;;;;7.20;5.03;;;0.20;79.90;;;;;;5116253;28;20176;-81
2023/04/05 05:11:35;;;;;;;11.07;5.47;;;0.20;80.10;;;;;;5116401;28;20182;-81
2023/04/05 05:14:01;;;;;;;5.73;4.50;;;0.20;80.20;;;;;;5117030;28;20219;-81
2023/04/05 05:16:27;;;;;;;7.43;4.73;;;0.10;81.10;;;;;;5116150;28;20214;-81
2023/04/05 05:18:54;;;;;;;7.73;5.27;;;-0.10;80.70;;;;;;5117370;28;20171;-79
2023/04/05 05:21:22;;;;;;;4.77;4.30;;;-0.10;80.90;;;;;;5099213;28;20263;-80
2023/04/05 05:23:48;;;;;;;5.33;4.83;;;0.10;80.80;;;;;;5115881;28;20175;-82
2023/04/05 05:26:14;;;;;;;5.13;4.43;;;0.00;80.90;;;;;;5115716;28;20167;-82
2023/04/05 05:28:40;;;;;;;8.00;5.23;;;-0.10;81.10;;;;;;5116716;28;20172;-80
2023/04/05 05:31:06;;;;;;;7.27;5.53;;;-0.10;81.20;;;;;;5099002;28;20186;-79
2023/04/05 05:33:31;;;;;;;6.97;4.77;;;-0.10;81.10;;;;;;5097198;28;20581;-81
2023/04/05 05:35:57;;;;;;;6.40;5.37;;;-0.20;81.40;;;;;;5116331;28;20252;-82
2023/04/05 05:38:23;;;;;;;6.00;5.40;;;-0.30;81.90;;;;;;5101655;28;20652;-80
2023/04/05 05:40:54;;;;;;;8.27;5.17;;;-0.10;81.60;;;;;;5132626;28;20171;-80
2023/04/05 05:43:20;;;;;;;8.20;5.20;;;0.00;81.10;;;;;;5134268;28;20156;-83
2023/04/05 05:45:46;;;;;;;5.80;4.77;;;0.00;80.90;;;;;;5119440;28;20180;-80
2023/04/05 05:48:12;;;;;;;5.90;5.30;;;0.20;80.70;;;;;;5116716;28;20656;-81
2023/04/05 05:50:40;;;;;;;6.00;5.33;;;0.20;80.60;;;;;;5116102;28;20171;-82
2023/04/05 05:53:06;;;;;;;8.80;6.13;;;0.20;80.60;;;;;;5115859;28;20207;-80
2023/04/05 05:55:32;;;;;;;8.93;6.00;;;0.40;80.50;;;;;;5116005;28;20252;-83
2023/04/05 05:57:58;;;;;;;5.03;4.53;;;0.50;80.20;;;;;;5097232;28;20174;-82
2023/04/05 06:00:24;;;;;;;6.70;4.87;;;0.50;79.50;;;;;;5115328;28;20201;-78
2023/04/05 06:02:51;;;;;;;9.83;4.50;;;0.60;79.60;;;;;;5115100;28;20219;-80
2023/04/05 06:05:17;;;;;;;8.23;5.70;;;0.70;79.60;;;;;;5114787;28;20226;-78
2023/04/05 06:07:42;;;;;;;8.60;5.37;;;0.70;79.40;;;;;;5114048;28;20168;-78
2023/04/05 06:10:08;;;;;;;6.10;5.60;;;0.80;79.30;;;;;;5096547;28;20197;-81
2023/04/05 06:12:34;;;;;;;8.60;4.30;;;0.80;79.00;;;;;;5114765;28;20479;-81
2023/04/05 06:15:01;;;;;;;7.13;5.20;;;0.90;79.00;;;;;;5114081;28;20220;-79
2023/04/05 06:17:27;;;;;;;7.90;5.07;;;1.00;78.90;;;;;;5114007;28;20181;-79
2023/04/05 06:19:53;;;;;;;5.33;4.87;;;1.10;78.70;;;;;;5114927;28;20179;-82
2023/04/05 06:22:18;;;;;;;5.40;4.90;;;1.10;78.80;;;;;;5114959;28;20182;-79
2023/04/05 06:24:44;;;;;;;5.20;4.67;;;1.20;78.30;;;;;;5114733;28;20168;-81
2023/04/05 06:27:10;;;;;;;6.13;4.30;;;1.20;76.80;;;;;;5114626;28;20648;-81
2023/04/05 06:29:36;;;;;;;5.30;4.43;;;1.30;75.90;;;;;;5114727;28;20173;-80
2023/04/05 06:32:01;;;;;;;4.63;3.90;;;1.30;75.70;;;;;;5096408;28;20184;-80
2023/04/05 06:34:27;;;;;;;4.53;3.97;;;1.30;75.60;;;;;;5114648;28;20179;-80
2023/04/05 06:36:54;;;;;;;5.03;4.30;;;1.40;75.50;;;;;;5096198;28;20211;-78
2023/04/05 06:39:20;;;;;;;4.80;4.00;;;1.40;75.50;;;;;;5114537;28;20172;-78
2023/04/05 06:41:46;;;;;;;4.70;4.30;;;1.40;75.40;;;;;;5096205;28;20195;-79
2023/04/05 06:44:12;;;;;;;5.10;4.00;;;1.40;74.90;;;;;;5114687;28;20174;-79
2023/04/05 06:46:37;;;;;;;4.57;3.97;;;1.50;75.10;;;;;;5114224;28;20172;-79
2023/04/05 06:49:03;;;;;;;5.23;4.73;;;1.50;75.20;;;;;;5114458;28;20176;-80
2023/04/05 06:51:30;;;;;;;5.23;4.10;;;1.60;74.40;;;;;;5096367;28;20208;-80
2023/04/05 06:53:56;;;;;;;4.70;3.97;;;1.70;74.70;;;;;;5114448;28;20181;-79
2023/04/05 06:56:22;;;;;;;5.77;4.00;;;1.70;74.40;;;;;;5113881;28;20211;-79
2023/04/05 06:58:48;;;;;;;4.13;3.73;;;1.80;74.40;;;;;;5114203;28;20617;-80
2023/04/05 07:01:14;;;;;;;4.70;4.20;;;1.90;74.50;;;;;;5114247;28;20180;-80
2023/04/05 07:03:40;;;;;;;4.40;4.00;;;1.90;74.30;;;;;;5095725;28;20173;-80
2023/04/05 07:06:05;;;;;;;6.00;4.70;;;1.90;73.70;;;;;;5113718;28;20185;-80
2023/04/05 07:08:32;;;;;;;7.00;4.30;;;2.10;73.40;;;;;;5113962;28;20169;-79
2023/04/05 07:10:58;;;;;;;5.07;4.00;;;2.10;73.00;;;;;;5095781;28;20178;-81
2023/04/05 07:13:24;;;;;;;4.83;3.83;;;1.90;72.80;;;;;;5114191;28;20167;-80
2023/04/05 07:15:51;;;;;;;4.63;4.23;;;1.90;73.20;;;;;;5114674;28;20208;-79
2023/04/05 07:18:17;;;;;;;8.47;4.50;;;2.00;73.50;;;;;;5114814;28;20164;-80
2023/04/05 07:20:47;;;;;;;5.67;4.10;;;2.00;73.10;;;;;;5114548;28;20173;-80
2023/04/05 07:23:12;;;;;;;5.17;4.40;;;2.10;73.10;;;;;;5116077;28;20184;-79
2023/04/05 07:25:41;;;;;;;5.93;4.53;;;2.20;72.80;;;;;;5116446;28;20182;-82
2023/04/05 07:28:07;;;;;;;4.33;3.93;;;2.20;73.10;;;;;;5118226;28;20235;-79
2023/04/05 07:30:32;;;;;;;7.97;4.97;;;2.40;73.10;;;;;;5128887;28;20173;-80
2023/04/05 07:32:58;;;;;;;4.63;4.13;;;2.40;73.00;;;;;;5122081;28;20184;-79
2023/04/05 07:35:24;;;;;;;4.73;4.13;;;2.50;72.80;;;;;;5115870;28;20300;-81
2023/04/05 07:37:51;;;;;;;4.70;4.23;;;2.50;72.80;;;;;;5114874;28;20170;-80
2023/04/05 07:40:17;;;;;;;5.17;4.03;;;2.60;72.50;;;;;;5114199;28;20222;-79
2023/04/05 07:42:42;;;;;;;6.03;4.23;;;2.60;72.70;;;;;;5113264;28;20177;-79
2023/04/05 07:45:09;;;;;;;4.97;4.53;;;2.70;72.60;;;;;;5113257;28;20658;-79
2023/04/05 07:47:35;;;;;;;6.13;4.60;;;2.70;72.30;;;;;;5112950;28;20636;-78
2023/04/05 07:50:02;;;;;;;5.70;4.40;;;2.80;72.50;;;;;;5094845;28;20183;-79
2023/04/05 07:52:28;;;;;;;5.10;4.60;;;2.80;72.10;;;;;;5113154;28;20227;-80
2023/04/05 07:54:54;;;;;;;4.60;4.20;;;2.80;71.40;;;;;;5113256;28;20227;-79
2023/04/05 07:57:21;;;;;;;4.70;3.80;;;2.90;71.80;;;;;;5112695;28;20220;-79
2023/04/05 07:59:49;;;;;;;5.03;4.53;;;2.90;71.40;;;;;;5113160;28;20227;-78
2023/04/05 08:02:15;;;;;;;5.33;4.70;;;3.00;71.60;;;;;;5113070;28;20209;-80
2023/04/05 08:04:41;;;;;;;4.93;4.50;;;3.00;70.90;;;;;;5112958;28;20177;-80
2023/04/05 08:07:07;;;;;;;4.90;4.47;;;3.10;71.00;;;;;;5112566;28;20179;-79
2023/04/05 08:09:34;;;;;;;4.93;4.53;;;3.10;70.80;;;;;;5112912;28;20198;-80
2023/04/05 08:12:01;;;;;;;4.43;3.67;;;3.10;71.40;;;;;;5113167;28;20736;-78
2023/04/05 08:14:27;;;;;;;5.03;4.57;;;3.10;71.90;;;;;;5112652;28;20255;-78
2023/04/05 08:16:53;;;;;;;4.87;4.30;;;3.30;71.50;;;;;;5094002;28;20202;-78
2023/04/05 08:19:19;;;;;;;7.23;4.07;;;3.30;70.60;;;;;;5112466;28;20180;-78
2023/04/05 08:21:44;;;;;;;4.87;4.43;;;3.40;68.90;;;;;;5113138;28;20630;-78
2023/04/05 08:24:10;;;;;;;5.70;4.37;;;3.40;69.40;;;;;;5113037;28;20179;-79
2023/04/05 08:26:36;;;;;;;5.57;4.23;;;3.50;69.30;;;;;;5112296;28;20182;-79
2023/04/05 08:29:02;;;;;;;4.33;3.93;;;3.60;69.00;;;;;;5112536;28;20174;-78
2023/04/05 08:31:28;;;;;;;4.77;4.30;;;3.70;69.10;;;;;;5112583;28;20176;-79
2023/04/05 08:33:53;;;;;;;4.40;4.10;;;3.70;69.10;;;;;;5112648;28;20198;-79
2023/04/05 08:36:19;;;;;;;4.77;3.60;;;3.70;68.80;;;;;;5112734;28;20569;-80
2023/04/05 08:38:45;;;;;;;3.80;3.27;;;3.90;67.00;;;;;;5112772;28;20171;-80
2023/04/05 08:41:18;;;;;;;4.70;3.50;;;3.90;66.70;;;;;;5112810;28;20203;-79
2023/04/05 08:44:01;;;;;;;4.37;3.97;;;4.00;66.60;;;;;;5095031;28;20176;-79
2023/04/05 08:46:30;;;;;;;4.60;3.40;;;4.00;67.30;;;;;;5112338;28;20687;-80
2023/04/05 08:48:57;;;;;;;5.27;4.00;;;4.10;65.70;;;;;;5094555;28;20173;-80
2023/04/05 08:51:24;;;;;;;3.93;3.53;;;4.20;65.70;;;;;;5095347;28;20178;-78
2023/04/05 08:53:51;;;;;;;4.00;3.70;;;4.30;64.10;;;;;;5113089;28;20168;-79
2023/04/05 08:56:26;;;;;;;3.90;3.60;;;4.20;64.60;;;;;;5112703;28;20198;-80
2023/04/05 08:59:06;;;;;;;4.70;3.73;;;4.20;64.30;;;;;;5112696;28;20153;-81
2023/04/05 09:01:35;;;;;;;3.87;3.53;;;4.20;64.10;;;;;;5113147;28;20667;-82
2023/04/05 09:04:06;;;;;;;4.60;3.97;;;4.30;65.10;;;;;;5112824;28;20664;-80
2023/04/05 09:06:34;;;;;;;4.43;4.00;;;4.40;65.20;;;;;;5112135;28;20168;-81
2023/04/05 09:09:04;;;;;;;4.77;3.93;;;4.50;65.30;;;;;;5112503;28;20662;-80
2023/04/05 09:11:30;;;;;;;4.33;3.47;;;4.50;64.80;;;;;;5112998;28;20184;-80
2023/04/05 09:13:56;;;;;;;4.37;3.93;;;4.60;65.00;;;;;;5094980;28;20273;-80
2023/04/05 09:16:22;;;;;;;7.20;3.40;;;4.70;65.30;;;;;;5115651;28;20205;-80
2023/04/05 09:18:48;;;;;;;3.73;3.43;;;4.80;65.30;;;;;;5120901;28;20164;-80
2023/04/05 09:21:16;;;;;;;3.60;3.30;;;4.90;64.80;;;;;;5116560;28;20175;-79
2023/04/05 09:23:52;;;;;;;3.60;3.30;;;5.00;62.20;;;;;;5095933;28;20181;-78
2023/04/05 09:26:20;;;;;;;3.40;3.10;;;5.00;62.30;;;;;;5112480;28;20161;-79
2023/04/05 09:28:46;;;;;;;3.53;3.23;;;5.10;61.90;;;;;;5111968;28;20186;-79
2023/04/05 09:31:35;;;;;;;3.60;3.30;;;5.10;62.10;;;;;;5093765;28;20195;-80
2023/04/05 09:34:04;;;;;;;4.80;3.60;;;5.20;61.30;;;;;;5111936;28;20162;-79
2023/04/05 09:36:35;;;;;;;4.83;3.60;;;5.30;60.90;;;;;;5111838;28;20217;-81
2023/04/05 09:39:08;;;;;;;3.67;3.30;;;5.30;60.20;;;;;;5111739;28;20244;-81
2023/04/05 09:41:35;;;;;;;3.83;3.53;;;5.30;61.10;;;;;;5111953;28;20159;-79
2023/04/05 09:44:01;;;;;;;3.90;3.37;;;5.30;60.60;;;;;;5111985;28;20166;-79
2023/04/05 09:46:36;;;;;;;3.90;2.60;;;5.30;58.40;;;;;;5111545;28;20531;-81
2023/04/05 09:49:02;;;;;;;3.97;3.17;;;5.20;58.40;;;;;;5111816;28;20264;-78
2023/04/05 09:51:38;;;;;;;2.80;2.60;;;5.10;58.80;;;;;;5113343;28;20183;-79
2023/04/05 09:54:09;;;;;;;2.73;2.53;;;5.20;58.00;;;;;;5115592;28;20613;-80
2023/04/05 09:56:37;;;;;;;3.37;3.07;;;5.20;58.70;;;;;;5115557;28;20661;-81
2023/04/05 09:59:09;;;;;;;3.17;2.90;;;5.20;57.60;;;;;;5115344;28;20245;-79
2023/04/05 10:01:41;;;;;;;4.17;3.00;;;5.20;57.90;;;;;;5097032;28;20179;-80
2023/04/05 10:04:08;;;;;;;5.53;2.90;;;5.20;58.60;;;;;;5097001;28;20233;-80
2023/04/05 10:06:36;;;;;;;3.00;2.80;;;5.30;57.00;;;;;;5114993;28;20214;-78
2023/04/05 10:09:03;;;;;;;3.17;2.93;;;5.20;56.90;;;;;;5114975;28;20594;-80
2023/04/05 10:11:29;;;;;;;3.10;2.80;;;5.10;57.10;;;;;;5096988;28;20579;-80
2023/04/05 10:13:56;;;;;;;2.97;2.77;;;5.10;57.60;;;;;;5096630;28;20234;-79
2023/04/05 10:16:24;;;;;;;3.43;2.67;;;5.10;57.30;;;;;;5114869;28;20253;-79
2023/04/05 10:18:52;;;;;;;3.23;2.93;;;5.30;57.80;;;;;;5096405;28;20263;-79
2023/04/05 10:21:22;;;;;;;3.07;2.87;;;5.50;58.20;;;;;;5115090;28;20173;-78
2023/04/05 10:24:14;;;;;;;2.90;2.70;;;5.50;59.70;;;;;;5115206;28;20157;-79
2023/04/05 10:26:48;;;;;;;3.13;2.83;;;5.50;60.00;;;;;;5114900;28;20220;-79
2023/04/05 10:29:23;;;;;;;3.00;2.80;;;5.60;59.60;;;;;;5114847;28;20193;-78
2023/04/05 10:31:51;;;;;;;7.70;3.00;;;5.80;60.00;;;;;;5114858;28;20184;-79
2023/04/05 10:34:50;;;;;;;5.60;2.90;;;5.90;60.00;;;;;;5115186;28;20179;-79
2023/04/05 10:37:38;;;;;;;3.23;2.80;;;6.10;60.00;;;;;;5114612;28;20300;-79
2023/04/05 10:40:09;;;;;;;5.50;2.63;;;6.20;58.50;;;;;;5064499;28;20187;-78
2023/04/05 10:42:45;;;;;;;2.93;2.73;;;6.30;58.00;;;;;;5114707;28;20155;-80
2023/04/05 10:45:18;;;;;;;4.83;2.63;;;6.40;58.00;;;;;;5116521;28;20168;-81
2023/04/05 10:47:57;;;;;;;2.83;2.53;;;6.40;58.30;;;;;;5114548;28;20160;-80
2023/04/05 10:50:24;;;;;;;4.10;2.70;;;6.40;56.70;;;;;;5114655;28;20161;-81
2023/04/05 10:52:51;;;;;;;2.73;2.53;;;6.30;56.80;;;;;;5114484;28;20185;-81
2023/04/05 10:55:18;;;;;;;3.00;2.70;;;6.30;56.60;;;;;;5096345;28;20704;-80
2023/04/05 10:57:45;;;;;;;3.37;2.73;;;6.40;56.20;;;;;;5095802;28;20234;-79
2023/04/05 11:00:12;;;;;;;2.73;2.53;;;6.40;55.70;;;;;;5114059;28;20171;-80
2023/04/05 11:02:38;;;;;;;2.87;2.50;;;6.40;55.00;;;;;;5113957;28;20179;-81
2023/04/05 11:05:04;;;;;;;4.13;2.63;;;6.40;55.20;;;;;;5114984;28;20243;-80
2023/04/05 11:07:43;;;;;;;2.50;2.37;;;6.50;55.80;;;;;;5114285;28;20166;-81
2023/04/05 11:10:16;;;;;;;2.30;2.20;;;6.50;54.60;;;;;;5114555;28;20208;-80
2023/04/05 11:12:45;;;;;;;2.47;2.30;;;6.50;54.50;;;;;;5096441;28;20173;-81
2023/04/05 11:15:26;;;;;;;2.13;2.03;;;6.40;54.00;;;;;;5095461;28;20231;-82
2023/04/05 11:18:07;;;;;;;4.53;2.23;;;6.30;54.60;;;;;;5095674;28;20177;-78
2023/04/05 11:20:50;;;;;;;2.53;2.30;;;6.30;54.50;;;;;;5113958;28;20219;-81
2023/04/05 11:23:21;;;;;;;5.07;2.53;;;6.40;55.60;;;;;;5095682;28;20186;-78
2023/04/05 11:25:56;;;;;;;3.03;2.80;;;6.50;56.30;;;;;;5095360;28;20222;-77
2023/04/05 11:28:24;;;;;;;3.40;3.10;;;6.50;56.40;;;;;;5113811;28;20159;-79
2023/04/05 11:30:52;;;;;;;3.93;2.43;;;6.70;57.00;;;;;;5113382;28;20224;-79
2023/04/05 11:33:38;;;;;;;2.80;2.60;;;6.80;57.90;;;;;;5113964;28;20533;-79
2023/04/05 11:36:04;;;;;;;3.07;2.50;;;6.90;56.90;;;;;;5113251;28;20211;-80
2023/04/05 11:38:30;;;;;;;3.67;2.70;;;7.10;56.80;;;;;;5113645;28;20169;-80
2023/04/05 11:41:19;;;;;;;2.50;2.40;;;7.30;56.00;;;;;;5094888;28;20274;-83
2023/04/05 11:43:51;;;;;;;3.53;2.70;;;7.40;54.40;;;;;;5113387;28;20212;-81
2023/04/05 11:46:17;;;;;;;2.50;2.40;;;7.30;54.50;;;;;;5094660;28;20181;-79
2023/04/05 11:48:49;;;;;;;4.80;2.80;;;7.20;55.00;;;;;;5094861;28;20639;-79
2023/04/05 11:51:15;;;;;;;2.83;2.60;;;7.20;55.00;;;;;;5094631;28;20181;-79
2023/04/05 11:53:46;;;;;;;3.60;2.60;;;7.10;54.60;;;;;;5113096;28;20264;-80
2023/04/05 11:56:14;;;;;;;2.60;2.50;;;7.10;55.70;;;;;;5094800;28;20204;-81
2023/04/05 11:58:41;;;;;;;3.63;2.97;;;7.00;55.30;;;;;;5094847;28;20603;-79
2023/04/05 12:01:08;;;;;;;3.37;2.30;;;7.10;55.10;;;;;;5113034;28;20688;-82
2023/04/05 12:03:35;;;;;;;2.77;2.17;;;7.20;55.20;;;;;;5113004;28;20184;-80
2023/04/05 12:06:03;;;;;;;5.03;2.47;;;7.30;55.70;;;;;;5112855;28;20205;-79
2023/04/05 12:08:52;;;;;;;2.50;2.30;;;7.30;56.10;;;;;;5112944;28;20181;-79
2023/04/05 12:11:26;;;;;;;2.97;2.37;;;7.40;53.60;;;;;;5112790;28;20165;-78
2023/04/05 12:14:00;;;;;;;2.30;2.10;;;7.40;53.90;;;;;;5111826;28;20246;-80
2023/04/05 12:16:26;;;;;;;2.50;2.40;;;7.40;54.90;;;;;;5094386;28;20205;-79
2023/04/05 12:18:58;;;;;;;2.70;2.50;;;7.40;53.90;;;;;;5111833;28;20966;-78
2023/04/05 12:21:26;;;;;;;3.07;2.37;;;7.40;53.50;;;;;;5093730;28;20220;-79
2023/04/05 12:23:52;;;;;;;2.23;2.13;;;7.40;54.30;;;;;;5112996;28;20259;-79
2023/04/05 12:26:20;;;;;;;3.00;2.23;;;7.40;54.50;;;;;;5113117;28;20644;-78
2023/04/05 12:29:12;;;;;;;3.57;2.10;;;7.40;53.90;;;;;;5094877;28;20181;-78
2023/04/05 12:31:44;;;;;;;2.67;2.50;;;7.50;54.30;;;;;;5108094;28;20618;-79
2023/04/05 12:34:12;;;;;;;3.07;2.27;;;7.60;54.70;;;;;;5114604;28;20192;-79
2023/04/05 12:36:42;;;;;;;3.20;2.70;;;7.60;54.50;;;;;;5099058;28;20628;-78
2023/04/05 12:39:09;;;;;;;3.13;2.37;;;7.70;54.40;;;;;;5094335;28;20630;-79
2023/04/05 12:41:36;;;;;;;2.30;2.20;;;7.70;53.80;;;;;;5094145;28;20184;-80
2023/04/05 12:44:11;;;;;;;2.20;2.10;;;7.70;54.30;;;;;;5112634;28;20204;-79
2023/04/05 12:46:44;;;;;;;2.17;2.07;;;7.60;53.60;;;;;;5112266;28;20184;-79
2023/04/05 12:49:18;;;;;;;2.30;2.13;;;7.70;54.10;;;;;;5112774;28;20193;-79
2023/04/05 12:51:44;;;;;;;2.50;2.30;;;7.80;54.20;;;;;;5112173;28;20191;-81
2023/04/05 12:54:21;;;;;;;3.73;2.30;;;7.80;54.80;;;;;;5113376;28;20162;-80
2023/04/05 12:56:51;;;;;;;3.00;2.50;;;7.80;55.00;;;;;;5112577;28;20246;-80
2023/04/05 12:59:17;;;;;;;3.07;2.50;;;7.90;54.60;;;;;;5112592;28;20188;-79
2023/04/05 13:01:43;;;;;;;2.40;2.20;;;7.90;54.10;;;;;;5112422;28;20250;-78
2023/04/05 13:04:09;;;;;;;2.70;2.37;;;7.90;55.20;;;;;;5112500;28;20181;-80
2023/04/05 13:06:35;;;;;;;2.50;2.30;;;7.90;54.10;;;;;;5112177;28;20297;-80